createdAt,value
2022-12-27T00:00:58.115Z,1.70
2022-12-27T00:03:25.926Z,2.20
2022-12-27T00:05:53.667Z,2.67
2022-12-27T00:08:21.545Z,2.13
2022-12-27T00:10:49.346Z,1.80
2022-12-27T00:13:18.455Z,1.87
2022-12-27T00:15:46.261Z,2.00
2022-12-27T00:18:14.033Z,2.10
2022-12-27T00:20:41.810Z,1.90
2022-12-27T00:23:09.671Z,4.27
2022-12-27T00:25:37.463Z,3.30
2022-12-27T00:28:05.459Z,2.17
2022-12-27T00:30:35.196Z,3.30
2022-12-27T00:33:03.015Z,2.33
2022-12-27T00:35:30.810Z,2.20
2022-12-27T00:37:58.626Z,2.00
2022-12-27T00:40:26.409Z,3.63
2022-12-27T00:42:54.189Z,2.10
2022-12-27T00:45:22.037Z,2.20
2022-12-27T00:47:51.744Z,2.30
2022-12-27T00:50:19.656Z,3.30
2022-12-27T00:52:47.424Z,1.90
2022-12-27T00:55:15.941Z,3.03
2022-12-27T00:57:43.767Z,2.10
2022-12-27T01:00:12.670Z,2.97
2022-12-27T01:02:40.409Z,2.10
2022-12-27T01:05:09.911Z,4.37
2022-12-27T01:07:37.691Z,3.83
2022-12-27T01:10:06.470Z,2.40
2022-12-27T01:12:35.501Z,2.30
2022-12-27T01:15:03.327Z,2.40
2022-12-27T01:17:31.519Z,2.20
2022-12-27T01:19:59.284Z,2.90
2022-12-27T01:22:28.415Z,8.07
2022-12-27T01:24:56.194Z,2.20
2022-12-27T01:27:24.021Z,2.60
2022-12-27T01:29:51.847Z,4.83
2022-12-27T01:32:19.596Z,3.90
2022-12-27T01:34:47.623Z,2.47
2022-12-27T01:37:15.387Z,3.00
2022-12-27T01:39:44.508Z,2.53
2022-12-27T01:42:30.914Z,2.10
2022-12-27T01:44:59.560Z,3.27
2022-12-27T01:47:34.039Z,10.20
2022-12-27T01:50:10.671Z,2.57
2022-12-27T01:52:43.834Z,2.50
2022-12-27T01:55:19.894Z,2.00
2022-12-27T01:57:49.723Z,6.30
2022-12-27T02:00:18.336Z,2.93
2022-12-27T02:02:46.472Z,3.73
2022-12-27T02:05:18.307Z,2.50
2022-12-27T02:08:12.625Z,2.40
2022-12-27T02:10:42.135Z,3.40
2022-12-27T02:13:10.087Z,2.33
2022-12-27T02:15:37.892Z,4.63
2022-12-27T02:18:05.861Z,2.60
2022-12-27T02:20:42.979Z,3.17
2022-12-27T02:23:53.563Z,3.80
2022-12-27T02:26:40.531Z,4.83
2022-12-27T02:29:23.680Z,3.53
2022-12-27T02:31:58.126Z,14.63
2022-12-27T02:34:29.470Z,2.50
2022-12-27T02:37:02.742Z,2.17
2022-12-27T02:39:35.493Z,4.40
2022-12-27T02:42:21.717Z,4.00
2022-12-27T02:45:08.408Z,2.00
2022-12-27T02:47:53.803Z,2.67
2022-12-27T02:50:39.940Z,7.50
2022-12-27T02:53:15.349Z,2.10
2022-12-27T02:56:13.409Z,2.77
2022-12-27T02:58:54.754Z,2.20
2022-12-27T03:01:51.392Z,3.13
2022-12-27T03:04:34.628Z,3.50
2022-12-27T03:07:26.764Z,7.53
2022-12-27T03:10:32.783Z,2.50
2022-12-27T03:13:33.255Z,5.10
2022-12-27T03:16:11.352Z,2.10
2022-12-27T03:19:09.370Z,2.27
2022-12-27T03:21:58.071Z,2.97
2022-12-27T03:24:48.267Z,2.83
2022-12-27T03:27:20.208Z,3.77
2022-12-27T03:30:08.914Z,2.77
2022-12-27T03:32:58.203Z,3.50
2022-12-27T03:35:29.776Z,5.30
2022-12-27T03:38:05.842Z,3.10
2022-12-27T03:41:19.573Z,3.37
2022-12-27T03:43:47.476Z,2.57
2022-12-27T03:46:33.969Z,3.60
2022-12-27T03:49:12.528Z,4.60
2022-12-27T03:51:45.178Z,2.63
2022-12-27T03:54:18.126Z,4.67
2022-12-27T03:56:45.909Z,2.50
2022-12-27T03:59:13.952Z,2.40
2022-12-27T04:01:42.415Z,2.90
2022-12-27T04:04:10.418Z,2.30
2022-12-27T04:06:38.159Z,2.20
2022-12-27T04:09:25.088Z,2.33
2022-12-27T04:12:10.523Z,3.17
2022-12-27T04:14:55.843Z,2.30
2022-12-27T04:17:41.251Z,2.87
2022-12-27T04:20:27.052Z,2.83
2022-12-27T04:23:12.455Z,4.43
2022-12-27T04:25:59.006Z,3.90
2022-12-27T04:28:44.414Z,5.10
2022-12-27T04:31:30.076Z,2.40
2022-12-27T04:34:15.640Z,2.47
2022-12-27T04:36:43.589Z,2.40
2022-12-27T04:39:11.501Z,3.00
2022-12-27T04:41:59.126Z,3.63
2022-12-27T04:44:44.706Z,4.80
2022-12-27T04:47:33.163Z,2.00
2022-12-27T04:50:19.501Z,2.17
2022-12-27T04:53:05.542Z,2.73
2022-12-27T04:55:33.423Z,2.70
2022-12-27T04:58:02.521Z,4.30
2022-12-27T05:00:49.094Z,2.73
2022-12-27T05:03:19.767Z,2.20
2022-12-27T05:05:49.482Z,2.30
2022-12-27T05:08:35.449Z,3.20
2022-12-27T05:11:21.166Z,2.20
2022-12-27T05:14:02.411Z,2.23
2022-12-27T05:16:32.153Z,4.67
2022-12-27T05:19:00.225Z,2.60
2022-12-27T05:21:28.632Z,4.70
2022-12-27T05:24:10.321Z,2.20
2022-12-27T05:26:39.094Z,3.00
2022-12-27T05:29:09.432Z,2.47
2022-12-27T05:31:37.398Z,4.40
2022-12-27T05:34:05.881Z,2.60
2022-12-27T05:36:33.898Z,5.50
2022-12-27T05:39:01.742Z,2.67
2022-12-27T05:41:29.488Z,2.67
2022-12-27T05:44:02.059Z,2.60
2022-12-27T05:46:36.137Z,2.30
2022-12-27T05:49:04.218Z,2.73
2022-12-27T05:51:32.024Z,10.83
2022-12-27T05:53:59.863Z,5.60
2022-12-27T05:56:27.665Z,2.20
2022-12-27T05:58:55.517Z,2.00
2022-12-27T06:01:23.549Z,5.00
2022-12-27T06:03:52.690Z,2.87
2022-12-27T06:06:20.524Z,5.10
2022-12-27T06:08:48.296Z,6.30
2022-12-27T06:11:18.712Z,2.77
2022-12-27T06:13:52.279Z,6.70
2022-12-27T06:16:21.312Z,5.50
2022-12-27T06:18:49.188Z,3.20
2022-12-27T06:21:20.199Z,2.70
2022-12-27T06:23:49.431Z,2.83
2022-12-27T06:26:19.565Z,5.43
2022-12-27T06:28:49.058Z,1.80
2022-12-27T06:31:17.316Z,2.70
2022-12-27T06:33:46.094Z,2.93
2022-12-27T06:36:16.373Z,5.90
2022-12-27T06:38:46.038Z,2.60
2022-12-27T06:41:17.086Z,2.70
2022-12-27T06:43:45.687Z,4.97
2022-12-27T06:46:17.905Z,3.63
2022-12-27T06:48:46.408Z,5.40
2022-12-27T06:51:15.525Z,2.97
2022-12-27T06:53:44.666Z,2.83
2022-12-27T06:56:16.477Z,3.40
2022-12-27T06:58:44.358Z,4.20
2022-12-27T07:01:13.908Z,2.63
2022-12-27T07:03:42.592Z,14.90
2022-12-27T07:06:11.662Z,2.93
2022-12-27T07:08:39.594Z,3.80
2022-12-27T07:11:10.905Z,1.90
2022-12-27T07:13:40.829Z,2.13
2022-12-27T07:16:10.673Z,2.30
2022-12-27T07:18:38.604Z,4.47
2022-12-27T07:21:07.469Z,2.47
2022-12-27T07:23:35.753Z,2.57
2022-12-27T07:26:04.494Z,4.00
2022-12-27T07:28:34.082Z,4.57
2022-12-27T07:31:06.490Z,4.30
2022-12-27T07:33:34.292Z,2.70
2022-12-27T07:36:02.994Z,3.60
2022-12-27T07:38:30.832Z,4.37
2022-12-27T07:41:00.791Z,3.17
2022-12-27T07:43:31.066Z,5.20
2022-12-27T07:46:06.018Z,4.57
2022-12-27T07:48:33.963Z,4.90
2022-12-27T07:51:01.772Z,3.60
2022-12-27T07:53:29.770Z,3.20
2022-12-27T07:55:57.631Z,3.47
2022-12-27T07:58:25.848Z,3.67
2022-12-27T08:00:53.860Z,4.37
2022-12-27T08:03:23.063Z,7.30
2022-12-27T08:05:53.069Z,4.63
2022-12-27T08:08:24.390Z,2.77
2022-12-27T08:10:52.153Z,4.23
2022-12-27T08:13:20.052Z,4.67
2022-12-27T08:15:47.848Z,3.73
2022-12-27T08:18:15.643Z,2.80
2022-12-27T08:20:44.758Z,6.33
2022-12-27T08:23:12.570Z,2.47
2022-12-27T08:25:46.810Z,2.70
2022-12-27T08:28:18.265Z,3.30
2022-12-27T08:30:47.343Z,4.20
2022-12-27T08:33:16.169Z,3.43
2022-12-27T08:35:54.604Z,4.00
2022-12-27T08:38:23.032Z,5.50
2022-12-27T08:40:50.974Z,4.67
2022-12-27T08:43:18.854Z,4.00
2022-12-27T08:45:46.661Z,5.60
2022-12-27T08:48:14.460Z,2.60
2022-12-27T08:50:42.450Z,2.70
2022-12-27T08:53:12.442Z,3.90
2022-12-27T08:55:40.208Z,4.13
2022-12-27T08:58:13.927Z,4.60
2022-12-27T09:00:44.021Z,4.07
2022-12-27T09:03:12.230Z,2.87
2022-12-27T09:05:42.169Z,2.50
2022-12-27T09:08:11.917Z,3.30
2022-12-27T09:10:40.156Z,6.10
2022-12-27T09:13:08.278Z,3.50
2022-12-27T09:15:36.103Z,3.60
2022-12-27T09:18:04.001Z,4.00
2022-12-27T09:20:32.454Z,3.97
2022-12-27T09:23:00.230Z,3.13
2022-12-27T09:25:29.385Z,3.57
2022-12-27T09:27:57.248Z,3.33
2022-12-27T09:30:24.971Z,4.57
2022-12-27T09:32:52.801Z,2.60
2022-12-27T09:35:20.545Z,2.63
2022-12-27T09:37:48.316Z,7.17
2022-12-27T09:40:19.535Z,3.30
2022-12-27T09:43:10.477Z,3.40
2022-12-27T09:45:47.921Z,3.67
2022-12-27T09:48:18.849Z,5.90
2022-12-27T09:50:52.005Z,2.43
2022-12-27T09:53:23.135Z,2.20
2022-12-27T09:55:54.049Z,6.53
2022-12-27T09:58:39.029Z,2.77
2022-12-27T10:01:19.815Z,2.43
2022-12-27T10:03:48.272Z,5.40
2022-12-27T10:06:36.792Z,4.13
2022-12-27T10:09:15.276Z,2.53
2022-12-27T10:11:50.475Z,3.40
2022-12-27T10:14:31.168Z,3.87
2022-12-27T10:17:05.411Z,2.20
2022-12-27T10:19:42.071Z,2.03
2022-12-27T10:22:20.387Z,3.60
2022-12-27T10:24:51.184Z,2.70
2022-12-27T10:27:22.447Z,5.07
2022-12-27T10:29:53.703Z,3.53
2022-12-27T10:32:21.507Z,2.10
2022-12-27T10:34:54.355Z,3.20
2022-12-27T10:37:22.067Z,3.57
2022-12-27T10:39:50.028Z,2.20
2022-12-27T10:42:32.139Z,2.80
2022-12-27T10:45:33.551Z,2.37
2022-12-27T10:48:15.133Z,2.80
2022-12-27T10:50:50.568Z,1.80
2022-12-27T10:53:37.438Z,8.23
2022-12-27T10:56:13.826Z,3.57
2022-12-27T10:58:44.673Z,2.30
2022-12-27T11:01:26.924Z,2.40
2022-12-27T11:04:20.185Z,2.43
2022-12-27T11:06:51.390Z,4.40
2022-12-27T11:09:26.277Z,3.30
2022-12-27T11:12:11.780Z,2.10
2022-12-27T11:14:39.917Z,5.20
2022-12-27T11:17:11.593Z,2.57
2022-12-27T11:19:45.640Z,2.20
2022-12-27T11:22:13.591Z,2.20
2022-12-27T11:24:46.508Z,2.33
2022-12-27T11:27:24.529Z,4.63
2022-12-27T11:29:56.624Z,2.00
2022-12-27T11:32:26.304Z,3.00
2022-12-27T11:34:55.622Z,3.40
2022-12-27T11:37:27.180Z,3.30
2022-12-27T11:40:15.055Z,2.00
2022-12-27T11:42:47.839Z,3.63
2022-12-27T11:45:23.205Z,3.80
2022-12-27T11:47:57.622Z,3.70
2022-12-27T11:50:46.849Z,14.30
2022-12-27T11:53:32.965Z,2.20
2022-12-27T11:56:14.015Z,2.30
2022-12-27T11:59:18.293Z,3.67
2022-12-27T12:02:07.382Z,2.80
2022-12-27T12:04:55.357Z,2.20
2022-12-27T12:07:36.892Z,3.00
2022-12-27T12:10:17.679Z,2.20
2022-12-27T12:13:03.642Z,2.10
2022-12-27T12:15:59.626Z,2.77
2022-12-27T12:18:50.379Z,5.17
2022-12-27T12:21:32.654Z,2.10
2022-12-27T12:24:28.242Z,5.03
2022-12-27T12:27:16.478Z,2.77
2022-12-27T12:30:13.260Z,3.20
2022-12-27T12:32:55.465Z,2.40
2022-12-27T12:35:33.110Z,2.20
2022-12-27T12:38:17.732Z,4.90
2022-12-27T12:41:03.868Z,4.50
2022-12-27T12:43:48.957Z,3.37
2022-12-27T12:46:28.885Z,4.03
2022-12-27T12:49:22.656Z,2.10
2022-12-27T12:52:04.809Z,2.30
2022-12-27T12:55:02.338Z,5.03
2022-12-27T12:57:44.083Z,3.50
2022-12-27T13:00:25.000Z,5.83
2022-12-27T13:03:19.625Z,2.17
2022-12-27T13:05:52.638Z,2.57
2022-12-27T13:08:26.575Z,3.80
2022-12-27T13:11:26.053Z,4.03
2022-12-27T13:14:24.735Z,3.50
2022-12-27T13:16:59.823Z,3.10
2022-12-27T13:19:42.071Z,3.27
2022-12-27T13:22:16.456Z,2.13
2022-12-27T13:24:55.935Z,2.37
2022-12-27T13:27:35.175Z,4.37
2022-12-27T13:30:14.953Z,2.97
2022-12-27T13:33:04.909Z,2.27
2022-12-27T13:35:43.719Z,3.17
2022-12-27T13:38:31.797Z,6.43
2022-12-27T13:41:30.176Z,3.80
2022-12-27T13:44:13.269Z,2.93
2022-12-27T13:47:34.007Z,2.10
2022-12-27T13:50:35.490Z,3.33
2022-12-27T13:53:22.061Z,3.23
2022-12-27T13:55:56.481Z,6.20
2022-12-27T13:59:00.377Z,10.67
2022-12-27T14:02:00.295Z,3.50
2022-12-27T14:04:59.513Z,3.93
2022-12-27T14:07:43.322Z,4.00
2022-12-27T14:10:18.255Z,2.77
2022-12-27T14:12:56.517Z,4.90
2022-12-27T14:15:29.686Z,3.17
2022-12-27T14:18:24.665Z,3.60
2022-12-27T14:21:06.120Z,4.47
2022-12-27T14:23:55.506Z,4.20
2022-12-27T14:26:59.824Z,4.60
2022-12-27T14:30:10.098Z,4.20
2022-12-27T14:33:07.395Z,2.93
2022-12-27T14:36:12.679Z,2.50
2022-12-27T14:39:25.540Z,4.70
2022-12-27T14:42:19.801Z,2.67
2022-12-27T14:45:24.830Z,3.10
2022-12-27T14:48:16.521Z,2.73
2022-12-27T14:54:58.435Z,4.57
2022-12-27T14:57:37.099Z,2.77
2022-12-27T15:00:15.556Z,4.13
2022-12-27T15:03:09.306Z,3.70
2022-12-27T15:05:47.082Z,2.90
2022-12-27T15:08:46.547Z,6.40
2022-12-27T15:11:31.282Z,3.87
2022-12-27T15:14:14.990Z,4.30
2022-12-27T15:16:53.500Z,3.30
2022-12-27T15:19:42.259Z,5.13
2022-12-27T15:22:18.654Z,3.67
2022-12-27T15:24:57.156Z,4.33
2022-12-27T15:27:32.733Z,3.17
2022-12-27T15:30:21.174Z,4.37
2022-12-27T15:33:00.663Z,3.03
2022-12-27T15:35:44.508Z,5.70
2022-12-27T15:38:15.198Z,4.27
2022-12-27T15:41:24.814Z,3.67
2022-12-27T15:44:37.153Z,3.90
2022-12-27T15:47:38.608Z,5.67
2022-12-27T15:50:18.651Z,4.50
2022-12-27T15:53:15.991Z,3.33
2022-12-27T15:56:12.216Z,15.50
2022-12-27T15:58:42.042Z,8.80
2022-12-27T16:01:29.807Z,19.53
2022-12-27T16:03:59.458Z,8.90
2022-12-27T16:06:49.847Z,18.13
2022-12-27T16:09:36.653Z,8.80
2022-12-27T16:12:09.747Z,5.80
2022-12-27T16:14:41.135Z,4.50
2022-12-27T16:17:30.778Z,10.20
2022-12-27T16:20:18.227Z,6.50
2022-12-27T16:22:52.444Z,6.27
2022-12-27T16:25:31.087Z,5.57
2022-12-27T16:28:03.354Z,5.30
2022-12-27T16:30:44.906Z,5.40
2022-12-27T16:33:31.061Z,7.43
2022-12-27T16:36:24.815Z,8.33
2022-12-27T16:39:06.415Z,7.23
2022-12-27T16:41:58.373Z,12.00
2022-12-27T16:44:52.635Z,9.20
2022-12-27T16:47:44.673Z,9.03
2022-12-27T16:50:40.770Z,10.07
2022-12-27T16:53:21.892Z,8.90
2022-12-27T16:56:16.144Z,7.20
2022-12-27T16:58:44.176Z,9.40
2022-12-27T17:01:56.915Z,10.83
2022-12-27T17:04:56.431Z,10.37
2022-12-27T17:07:44.265Z,12.50
2022-12-27T17:10:35.028Z,33.57
2022-12-27T17:13:10.897Z,40.20
2022-12-27T17:15:49.765Z,54.60
2022-12-27T17:18:28.931Z,40.47
2022-12-27T17:21:06.015Z,21.20
2022-12-27T17:23:39.806Z,23.30
2022-12-27T17:26:28.122Z,16.10
2022-12-27T17:29:06.602Z,16.87
2022-12-27T17:31:42.383Z,12.70
2022-12-27T17:34:17.898Z,15.23
2022-12-27T17:36:57.904Z,13.40
2022-12-27T17:39:41.650Z,11.00
2022-12-27T17:42:45.860Z,12.23
2022-12-27T17:45:22.573Z,13.73
2022-12-27T17:48:05.558Z,12.77
2022-12-27T17:50:33.553Z,10.53
2022-12-27T17:53:39.437Z,14.50
2022-12-27T17:56:33.866Z,12.47
2022-12-27T17:59:08.336Z,11.10
2022-12-27T18:01:39.611Z,14.87
2022-12-27T18:04:08.099Z,9.67
2022-12-27T18:06:38.600Z,9.17
2022-12-27T18:09:08.596Z,12.40
2022-12-27T18:11:36.449Z,10.73
2022-12-27T18:14:05.753Z,11.27
2022-12-27T18:16:39.903Z,9.70
2022-12-27T18:19:07.762Z,10.93
2022-12-27T18:21:35.596Z,12.37
2022-12-27T18:24:03.460Z,9.10
2022-12-27T18:26:38.132Z,8.10
2022-12-27T18:29:07.013Z,8.60
2022-12-27T18:31:39.323Z,9.10
2022-12-27T18:34:11.771Z,8.50
2022-12-27T18:36:42.984Z,10.40
2022-12-27T18:39:20.725Z,10.20
2022-12-27T18:41:52.529Z,12.30
2022-12-27T18:44:27.020Z,13.70
2022-12-27T18:46:57.538Z,10.37
2022-12-27T18:49:27.417Z,10.43
2022-12-27T18:51:55.989Z,8.80
2022-12-27T18:54:34.074Z,10.93
2022-12-27T18:57:05.963Z,8.37
2022-12-27T18:59:35.963Z,11.63
2022-12-27T19:02:25.380Z,9.90
2022-12-27T19:05:25.266Z,12.10
2022-12-27T19:07:57.889Z,13.03
2022-12-27T19:10:28.063Z,10.60
2022-12-27T19:12:57.890Z,12.10
2022-12-27T19:15:28.247Z,12.87
2022-12-27T19:18:00.106Z,11.70
2022-12-27T19:20:30.377Z,10.80
2022-12-27T19:23:06.053Z,9.60
2022-12-27T19:25:35.185Z,11.07
2022-12-27T19:28:20.736Z,11.03
2022-12-27T19:30:51.500Z,10.17
2022-12-27T19:33:25.188Z,10.40
2022-12-27T19:35:53.975Z,9.47
2022-12-27T19:38:24.510Z,11.53
2022-12-27T19:41:01.306Z,8.33
2022-12-27T19:43:37.969Z,11.93
2022-12-27T19:46:06.511Z,11.20
2022-12-27T19:48:34.292Z,8.80
2022-12-27T19:51:02.153Z,11.37
2022-12-27T19:53:33.465Z,8.80
2022-12-27T19:56:01.852Z,10.03
2022-12-27T19:58:31.909Z,10.03
2022-12-27T20:01:01.070Z,13.63
2022-12-27T20:03:32.038Z,9.10
2022-12-27T20:06:12.697Z,12.00
2022-12-27T20:08:45.618Z,13.43
2022-12-27T20:11:16.324Z,8.60
2022-12-27T20:13:45.680Z,11.20
2022-12-27T20:16:14.953Z,7.63
2022-12-27T20:18:44.536Z,15.23
2022-12-27T20:21:14.040Z,11.07
2022-12-27T20:23:41.905Z,9.30
2022-12-27T20:26:09.921Z,7.60
2022-12-27T20:28:38.199Z,10.27
2022-12-27T20:31:11.910Z,10.00
2022-12-27T20:33:40.074Z,9.17
2022-12-27T20:36:08.950Z,9.30
2022-12-27T20:38:38.623Z,6.00
2022-12-27T20:41:07.817Z,9.40
2022-12-27T20:43:35.846Z,19.43
2022-12-27T20:46:07.159Z,9.03
2022-12-27T20:48:38.125Z,7.30
2022-12-27T20:51:09.793Z,8.13
2022-12-27T20:53:37.858Z,8.17
2022-12-27T20:56:06.676Z,9.70
2022-12-27T20:58:34.610Z,12.43
2022-12-27T21:01:07.339Z,10.63
2022-12-27T21:03:37.097Z,13.00
2022-12-27T21:06:09.794Z,12.33
2022-12-27T21:08:45.582Z,12.27
2022-12-27T21:11:16.187Z,16.40
2022-12-27T21:13:45.558Z,10.77
2022-12-27T21:16:14.957Z,14.83
2022-12-27T21:18:44.244Z,12.13
2022-12-27T21:21:14.411Z,11.43
2022-12-27T21:23:43.259Z,13.63
2022-12-27T21:26:13.606Z,7.80
2022-12-27T21:28:41.921Z,9.20
2022-12-27T21:31:10.276Z,7.80
2022-12-27T21:33:38.264Z,7.60
2022-12-27T21:36:11.440Z,10.37
2022-12-27T21:38:39.291Z,8.97
2022-12-27T21:41:08.784Z,10.73
2022-12-27T21:43:36.685Z,10.90
2022-12-27T21:46:07.218Z,9.33
2022-12-27T21:48:35.950Z,8.50
2022-12-27T21:51:10.272Z,9.80
2022-12-27T21:53:38.091Z,10.27
2022-12-27T21:56:07.041Z,9.23
2022-12-27T21:58:37.743Z,7.80
2022-12-27T22:01:08.909Z,7.93
2022-12-27T22:03:39.311Z,8.10
2022-12-27T22:06:13.280Z,13.77
2022-12-27T22:08:41.916Z,11.07
2022-12-27T22:11:10.563Z,7.73
2022-12-27T22:13:38.769Z,10.00
2022-12-27T22:16:09.524Z,6.13
2022-12-27T22:18:41.251Z,8.63
2022-12-27T22:21:11.563Z,14.20
2022-12-27T22:23:41.569Z,9.33
2022-12-27T22:26:11.934Z,8.80
2022-12-27T22:28:39.836Z,7.93
2022-12-27T22:31:08.179Z,12.47
2022-12-27T22:33:37.098Z,8.30
2022-12-27T22:36:06.640Z,8.90
2022-12-27T22:38:37.015Z,10.80
2022-12-27T22:41:06.093Z,10.30
2022-12-27T22:43:34.160Z,8.67
2022-12-27T22:46:05.517Z,12.53
2022-12-27T22:48:33.340Z,8.53
2022-12-27T22:51:06.397Z,15.53
2022-12-27T22:53:35.692Z,9.47
2022-12-27T22:56:03.447Z,12.53
2022-12-27T23:01:13.768Z,9.47
2022-12-27T23:03:42.342Z,10.37
2022-12-27T23:06:12.076Z,10.50
2022-12-27T23:08:41.930Z,10.23
2022-12-27T23:11:13.044Z,7.83
2022-12-27T23:13:40.829Z,7.57
2022-12-27T23:16:09.248Z,6.90
2022-12-27T23:18:39.324Z,12.53
2022-12-27T23:21:21.631Z,8.17
2022-12-27T23:23:53.653Z,6.73
2022-12-27T23:26:23.530Z,7.93
2022-12-27T23:28:53.419Z,6.13
2022-12-27T23:31:23.375Z,6.90
2022-12-27T23:33:52.555Z,9.10
2022-12-27T23:36:21.362Z,9.20
2022-12-27T23:38:50.006Z,6.37
2022-12-27T23:41:21.281Z,6.80
2022-12-27T23:43:52.658Z,9.87
2022-12-27T23:46:24.062Z,7.70
2022-12-27T23:48:52.505Z,10.03
2022-12-27T23:51:21.023Z,8.10
2022-12-27T23:53:49.189Z,8.80
2022-12-27T23:56:22.319Z,7.93
2022-12-27T23:58:51.757Z,6.47
